Norfolk, Virginia
Traffic Map
Current Weather Conditions
Norfolk, Virginia
Overcast
Overcast
76°
Feels Like: 76°
Wind Chill: 76° Ceiling: 1700
Heat Index: 76° Visibility: 10mi
Dew Point: 70° Wind: 13mph
Humidity: 82% Direction: 50° (NE)
Pressure: 30.03in Gusts: 0mph
Raw Report DataKORF 242051Z 05011KT 10SM BKN017 OVC022 24/21 A3003 RMK AO2 SLP168 T02440211 53004
Traffic Incident Summary
Active as of:
Severity:
Category:
InformationThere was an issue retrieving the traffic information for this location. Please try a different location or try again shortly.
Advertisements
Track Severe Weather on mobile